sensor_id;sensor_type;location;lat;lon;timestamp;pressure;altitude;pressure_sealevel;temperature;humidity
38880;BME280;25887;30.194;-97.880;2023-02-11T00:01:19;99651.09;;;13.72;33.17
38880;BME280;25887;30.194;-97.880;2023-02-11T00:04:13;99650.16;;;13.65;33.22
38880;BME280;25887;30.194;-97.880;2023-02-11T00:06:39;99658.72;;;13.61;33.04
38880;BME280;25887;30.194;-97.880;2023-02-11T00:09:39;99660.41;;;13.54;33.08
38880;BME280;25887;30.194;-97.880;2023-02-11T00:12:05;99660.38;;;13.50;33.06
38880;BME280;25887;30.194;-97.880;2023-02-11T00:14:31;99659.44;;;13.45;32.91
38880;BME280;25887;30.194;-97.880;2023-02-11T00:17:15;99668.03;;;13.39;33.06
38880;BME280;25887;30.194;-97.880;2023-02-11T00:19:40;99672.28;;;13.35;33.28
38880;BME280;25887;30.194;-97.880;2023-02-11T00:22:06;99674.00;;;13.33;33.53
38880;BME280;25887;30.194;-97.880;2023-02-11T00:24:32;99673.13;;;13.31;33.37
38880;BME280;25887;30.194;-97.880;2023-02-11T00:26:58;99684.25;;;13.30;33.54
38880;BME280;25887;30.194;-97.880;2023-02-11T00:29:24;99685.09;;;13.26;33.66
38880;BME280;25887;30.194;-97.880;2023-02-11T00:32:08;99682.44;;;13.20;33.34
38880;BME280;25887;30.194;-97.880;2023-02-11T00:34:35;99678.09;;;13.18;33.55
38880;BME280;25887;30.194;-97.880;2023-02-11T00:37:02;99689.22;;;13.14;33.29
38880;BME280;25887;30.194;-97.880;2023-02-11T00:39:28;99683.19;;;13.10;33.75
38880;BME280;25887;30.194;-97.880;2023-02-11T00:41:54;99698.59;;;13.07;33.84
38880;BME280;25887;30.194;-97.880;2023-02-11T00:44:20;99702.00;;;13.03;33.50
38880;BME280;25887;30.194;-97.880;2023-02-11T00:46:46;99698.56;;;13.02;34.09
38880;BME280;25887;30.194;-97.880;2023-02-11T00:49:12;99702.81;;;12.99;34.00
38880;BME280;25887;30.194;-97.880;2023-02-11T00:55:16;99709.59;;;12.91;33.47
38880;BME280;25887;30.194;-97.880;2023-02-11T00:58:36;99723.25;;;12.82;33.76
38880;BME280;25887;30.194;-97.880;2023-02-11T01:04:49;99730.03;;;12.74;34.22
38880;BME280;25887;30.194;-97.880;2023-02-11T01:07:55;99726.56;;;12.70;34.26
38880;BME280;25887;30.194;-97.880;2023-02-11T01:53:10;99745.53;;;12.16;34.89
38880;BME280;25887;30.194;-97.880;2023-02-11T01:55:55;99750.69;;;12.15;34.90
38880;BME280;25887;30.194;-97.880;2023-02-11T01:58:40;99745.44;;;12.09;34.78
38880;BME280;25887;30.194;-97.880;2023-02-11T02:01:09;99754.78;;;12.05;34.90
38880;BME280;25887;30.194;-97.880;2023-02-11T02:03:36;99760.75;;;12.01;34.80
38880;BME280;25887;30.194;-97.880;2023-02-11T02:06:09;99764.94;;;11.96;35.01
38880;BME280;25887;30.194;-97.880;2023-02-11T02:08:50;99761.41;;;11.89;34.79
38880;BME280;25887;30.194;-97.880;2023-02-11T02:11:17;99764.75;;;11.84;34.90
38880;BME280;25887;30.194;-97.880;2023-02-11T02:13:42;99762.88;;;11.77;34.83
38880;BME280;25887;30.194;-97.880;2023-02-11T02:16:12;99771.38;;;11.71;35.03
38880;BME280;25887;30.194;-97.880;2023-02-11T02:26:51;99788.06;;;11.46;34.98
38880;BME280;25887;30.194;-97.880;2023-02-11T02:34:41;99788.50;;;11.25;35.13
38880;BME280;25887;30.194;-97.880;2023-02-11T02:37:26;99797.78;;;11.17;35.19
38880;BME280;25887;30.194;-97.880;2023-02-11T02:39:56;99798.50;;;11.11;35.11
38880;BME280;25887;30.194;-97.880;2023-02-11T02:42:24;99802.63;;;11.03;35.29
38880;BME280;25887;30.194;-97.880;2023-02-11T02:45:11;99805.88;;;10.95;35.50
38880;BME280;25887;30.194;-97.880;2023-02-11T02:47:37;99795.44;;;10.87;35.26
38880;BME280;25887;30.194;-97.880;2023-02-11T02:50:03;99800.53;;;10.84;35.49
38880;BME280;25887;30.194;-97.880;2023-02-11T02:55:18;99812.34;;;10.76;35.49
38880;BME280;25887;30.194;-97.880;2023-02-11T03:00:49;99811.28;;;10.66;35.48
38880;BME280;25887;30.194;-97.880;2023-02-11T03:08:43;99812.75;;;10.56;35.52
38880;BME280;25887;30.194;-97.880;2023-02-11T03:11:10;99811.84;;;10.54;35.96
38880;BME280;25887;30.194;-97.880;2023-02-11T03:13:38;99813.44;;;10.49;35.74
38880;BME280;25887;30.194;-97.880;2023-02-11T03:16:09;99814.22;;;10.45;35.67
38880;BME280;25887;30.194;-97.880;2023-02-11T03:18:37;99821.81;;;10.42;35.90
38880;BME280;25887;30.194;-97.880;2023-02-11T03:21:04;99814.03;;;10.38;36.02
38880;BME280;25887;30.194;-97.880;2023-02-11T03:23:36;99818.22;;;10.34;35.88
38880;BME280;25887;30.194;-97.880;2023-02-11T03:32:01;99819.66;;;10.23;36.14
38880;BME280;25887;30.194;-97.880;2023-02-11T03:37:32;99821.25;;;10.19;35.82
38880;BME280;25887;30.194;-97.880;2023-02-11T03:39:56;99813.47;;;10.16;36.31
38880;BME280;25887;30.194;-97.880;2023-02-11T03:42:25;99813.41;;;10.13;36.03
38880;BME280;25887;30.194;-97.880;2023-02-11T03:45:05;99817.56;;;10.08;36.24
38880;BME280;25887;30.194;-97.880;2023-02-11T03:47:40;99810.63;;;10.04;35.96
38880;BME280;25887;30.194;-97.880;2023-02-11T03:50:09;99810.50;;;9.99;36.05
38880;BME280;25887;30.194;-97.880;2023-02-11T03:52:53;99815.50;;;9.95;36.27
38880;BME280;25887;30.194;-97.880;2023-02-11T03:55:20;99817.97;;;9.90;36.40
38880;BME280;25887;30.194;-97.880;2023-02-11T03:57:47;99818.69;;;9.86;36.61
38880;BME280;25887;30.194;-97.880;2023-02-11T04:00:13;99820.38;;;9.84;36.26
38880;BME280;25887;30.194;-97.880;2023-02-11T04:02:40;99826.31;;;9.82;36.66
38880;BME280;25887;30.194;-97.880;2023-02-11T04:05:07;99821.09;;;9.80;36.19
38880;BME280;25887;30.194;-97.880;2023-02-11T04:07:33;99819.34;;;9.77;36.39
38880;BME280;25887;30.194;-97.880;2023-02-11T04:09:59;99813.25;;;9.74;36.50
38880;BME280;25887;30.194;-97.880;2023-02-11T04:12:25;99813.16;;;9.71;36.53
38880;BME280;25887;30.194;-97.880;2023-02-11T04:15:11;99820.78;;;9.68;36.60
38880;BME280;25887;30.194;-97.880;2023-02-11T04:17:37;99822.47;;;9.66;36.16
38880;BME280;25887;30.194;-97.880;2023-02-11T04:20:03;99818.06;;;9.62;36.29
38880;BME280;25887;30.194;-97.880;2023-02-11T04:22:29;99815.41;;;9.59;36.22
38880;BME280;25887;30.194;-97.880;2023-02-11T04:25:06;99813.59;;;9.55;36.52
38880;BME280;25887;30.194;-97.880;2023-02-11T04:27:32;99803.22;;;9.50;36.76
38880;BME280;25887;30.194;-97.880;2023-02-11T04:29:58;99814.25;;;9.47;36.91
38880;BME280;25887;30.194;-97.880;2023-02-11T04:32:38;99814.16;;;9.44;36.57
38880;BME280;25887;30.194;-97.880;2023-02-11T04:35:04;99816.63;;;9.41;37.05
38880;BME280;25887;30.194;-97.880;2023-02-11T04:37:30;99814.00;;;9.38;37.02
38880;BME280;25887;30.194;-97.880;2023-02-11T04:39:55;99815.66;;;9.36;36.44
38880;BME280;25887;30.194;-97.880;2023-02-11T04:42:21;99813.84;;;9.34;36.79
38880;BME280;25887;30.194;-97.880;2023-02-11T04:44:47;99815.47;;;9.30;36.85
38880;BME280;25887;30.194;-97.880;2023-02-11T04:47:13;99817.16;;;9.28;36.42
38880;BME280;25887;30.194;-97.880;2023-02-11T04:49:52;99820.44;;;9.24;36.63
38880;BME280;25887;30.194;-97.880;2023-02-11T04:52:18;99818.69;;;9.23;37.09
38880;BME280;25887;30.194;-97.880;2023-02-11T04:55:16;99820.34;;;9.21;37.20
38880;BME280;25887;30.194;-97.880;2023-02-11T04:57:42;99809.19;;;9.19;37.03
38880;BME280;25887;30.194;-97.880;2023-02-11T05:00:28;99811.66;;;9.16;36.60
38880;BME280;25887;30.194;-97.880;2023-02-11T05:02:53;99809.00;;;9.13;37.29
38880;BME280;25887;30.194;-97.880;2023-02-11T05:05:19;99809.84;;;9.12;37.20
38880;BME280;25887;30.194;-97.880;2023-02-11T05:07:45;99812.28;;;9.09;36.83
38880;BME280;25887;30.194;-97.880;2023-02-11T05:10:11;99816.47;;;9.05;36.69
38880;BME280;25887;30.194;-97.880;2023-02-11T05:12:36;99812.19;;;9.04;37.29
38880;BME280;25887;30.194;-97.880;2023-02-11T05:15:19;99814.63;;;9.01;37.38
38880;BME280;25887;30.194;-97.880;2023-02-11T05:17:45;99813.72;;;8.99;36.85
38880;BME280;25887;30.194;-97.880;2023-02-11T05:20:11;99813.66;;;8.96;37.33
38880;BME280;25887;30.194;-97.880;2023-02-11T05:22:37;99811.84;;;8.93;36.68
38880;BME280;25887;30.194;-97.880;2023-02-11T05:25:03;99819.47;;;8.90;37.47
38880;BME280;25887;30.194;-97.880;2023-02-11T05:27:29;99817.72;;;8.89;36.95
38880;BME280;25887;30.194;-97.880;2023-02-11T05:29:54;99811.63;;;8.86;36.69
38880;BME280;25887;30.194;-97.880;2023-02-11T05:32:55;99807.22;;;8.80;37.68
38880;BME280;25887;30.194;-97.880;2023-02-11T05:35:21;99812.22;;;8.77;37.60
38880;BME280;25887;30.194;-97.880;2023-02-11T05:38:01;99811.28;;;8.74;37.58
38880;BME280;25887;30.194;-97.880;2023-02-11T05:40:27;99800.91;;;8.71;37.53
38880;BME280;25887;30.194;-97.880;2023-02-11T05:42:52;99801.66;;;8.67;37.13
38880;BME280;25887;30.194;-97.880;2023-02-11T05:45:18;99792.91;;;8.60;37.45
38880;BME280;25887;30.194;-97.880;2023-02-11T05:47:44;99797.03;;;8.55;37.03
38880;BME280;25887;30.194;-97.880;2023-02-11T05:50:10;99790.91;;;8.50;36.91
38880;BME280;25887;30.194;-97.880;2023-02-11T05:52:36;99788.09;;;8.42;37.29
38880;BME280;25887;30.194;-97.880;2023-02-11T05:55:03;99794.75;;;8.37;37.62
38880;BME280;25887;30.194;-97.880;2023-02-11T05:57:29;99790.19;;;8.28;37.90
38880;BME280;25887;30.194;-97.880;2023-02-11T05:59:54;99794.28;;;8.23;37.17
38880;BME280;25887;30.194;-97.880;2023-02-11T06:02:20;99786.44;;;8.17;37.47
38880;BME280;25887;30.194;-97.880;2023-02-11T06:04:46;99775.13;;;8.10;37.77
38880;BME280;25887;30.194;-97.880;2023-02-11T06:07:12;99778.34;;;8.05;37.95
38880;BME280;25887;30.194;-97.880;2023-02-11T06:09:57;99778.97;;;7.98;37.46
38880;BME280;25887;30.194;-97.880;2023-02-11T06:12:41;99775.38;;;7.93;38.35
38880;BME280;25887;30.194;-97.880;2023-02-11T06:15:07;99776.13;;;7.89;37.54
38880;BME280;25887;30.194;-97.880;2023-02-11T06:17:38;99773.34;;;7.82;38.40
38880;BME280;25887;30.194;-97.880;2023-02-11T06:20:05;99768.13;;;7.79;37.87
38880;BME280;25887;30.194;-97.880;2023-02-11T06:22:31;99754.31;;;7.74;38.33
38880;BME280;25887;30.194;-97.880;2023-02-11T06:24:57;99763.63;;;7.72;38.06
38880;BME280;25887;30.194;-97.880;2023-02-11T06:27:23;99768.63;;;7.69;38.16
38880;BME280;25887;30.194;-97.880;2023-02-11T06:29:49;99763.41;;;7.66;38.05
38880;BME280;25887;30.194;-97.880;2023-02-11T06:32:30;99755.66;;;7.63;37.96
38880;BME280;25887;30.194;-97.880;2023-02-11T06:35:07;99759.00;;;7.62;38.35
38880;BME280;25887;30.194;-97.880;2023-02-11T06:37:33;99762.38;;;7.61;38.03
38880;BME280;25887;30.194;-97.880;2023-02-11T06:39:59;99762.38;;;7.61;38.24
38880;BME280;25887;30.194;-97.880;2023-02-11T06:42:25;99760.66;;;7.60;38.47
38880;BME280;25887;30.194;-97.880;2023-02-11T06:44:51;99762.28;;;7.58;38.02
38880;BME280;25887;30.194;-97.880;2023-02-11T06:47:17;99757.09;;;7.55;38.25
38880;BME280;25887;30.194;-97.880;2023-02-11T06:49:42;99757.00;;;7.53;38.64
38880;BME280;25887;30.194;-97.880;2023-02-11T06:52:08;99754.41;;;7.52;38.57
38880;BME280;25887;30.194;-97.880;2023-02-11T06:54:34;99756.06;;;7.50;38.36
38880;BME280;25887;30.194;-97.880;2023-02-11T06:57:02;99752.50;;;7.46;38.10
38880;BME280;25887;30.194;-97.880;2023-02-11T06:59:28;99745.59;;;7.44;38.18
38880;BME280;25887;30.194;-97.880;2023-02-11T07:01:53;99745.50;;;7.41;38.87
38880;BME280;25887;30.194;-97.880;2023-02-11T07:07:12;99745.28;;;7.35;38.65
38880;BME280;25887;30.194;-97.880;2023-02-11T07:09:38;99741.75;;;7.31;38.82
38880;BME280;25887;30.194;-97.880;2023-02-11T07:12:04;99742.53;;;7.29;38.58
38880;BME280;25887;30.194;-97.880;2023-02-11T07:14:30;99735.56;;;7.24;38.41
38880;BME280;25887;30.194;-97.880;2023-02-11T07:16:56;99741.44;;;7.22;38.73
38880;BME280;25887;30.194;-97.880;2023-02-11T07:19:22;99742.19;;;7.19;38.90
38880;BME280;25887;30.194;-97.880;2023-02-11T07:21:48;99732.66;;;7.15;39.07
38880;BME280;25887;30.194;-97.880;2023-02-11T07:24:14;99733.41;;;7.11;38.68
38880;BME280;25887;30.194;-97.880;2023-02-11T07:26:39;99736.78;;;7.10;38.81
38880;BME280;25887;30.194;-97.880;2023-02-11T07:29:05;99726.41;;;7.07;38.97
38880;BME280;25887;30.194;-97.880;2023-02-11T07:31:31;99725.50;;;7.05;38.85
38880;BME280;25887;30.194;-97.880;2023-02-11T07:34:01;99721.13;;;7.01;39.11
38880;BME280;25887;30.194;-97.880;2023-02-11T07:36:27;99721.00;;;6.98;39.08
38880;BME280;25887;30.194;-97.880;2023-02-11T07:38:54;99719.25;;;6.97;39.07
38880;BME280;25887;30.194;-97.880;2023-02-11T07:41:20;99715.78;;;6.95;39.33
38880;BME280;25887;30.194;-97.880;2023-02-11T07:43:46;99719.16;;;6.94;38.96
38880;BME280;25887;30.194;-97.880;2023-02-11T07:46:14;99709.75;;;6.93;39.37
38880;BME280;25887;30.194;-97.880;2023-02-11T07:48:43;99712.31;;;6.93;38.99
38880;BME280;25887;30.194;-97.880;2023-02-11T07:51:13;99713.97;;;6.92;39.05
38880;BME280;25887;30.194;-97.880;2023-02-11T07:53:39;99713.09;;;6.92;39.46
38880;BME280;25887;30.194;-97.880;2023-02-11T07:56:05;99711.41;;;6.92;39.35
38880;BME280;25887;30.194;-97.880;2023-02-11T07:58:31;99709.75;;;6.93;39.25
38880;BME280;25887;30.194;-97.880;2023-02-11T08:01:01;99702.09;;;6.93;39.45
38880;BME280;25887;30.194;-97.880;2023-02-11T08:03:37;99708.94;;;6.94;38.88
38880;BME280;25887;30.194;-97.880;2023-02-11T08:06:04;99694.47;;;6.94;39.57
38880;BME280;25887;30.194;-97.880;2023-02-11T08:08:47;99686.88;;;6.96;39.41
38880;BME280;25887;30.194;-97.880;2023-02-11T08:11:26;99685.19;;;6.96;39.38
38880;BME280;25887;30.194;-97.880;2023-02-11T08:13:52;99688.59;;;6.97;39.30
38880;BME280;25887;30.194;-97.880;2023-02-11T08:19:07;99677.56;;;6.98;39.47
38880;BME280;25887;30.194;-97.880;2023-02-11T08:21:33;99675.88;;;6.98;39.49
38880;BME280;25887;30.194;-97.880;2023-02-11T08:24:14;99670.03;;;7.01;39.44
38880;BME280;25887;30.194;-97.880;2023-02-11T08:26:40;99666.66;;;7.02;39.24
38880;BME280;25887;30.194;-97.880;2023-02-11T08:29:07;99659.84;;;7.03;39.19
38880;BME280;25887;30.194;-97.880;2023-02-11T08:32:01;99665.00;;;7.04;39.68
38880;BME280;25887;30.194;-97.880;2023-02-11T08:34:27;99646.28;;;7.05;39.30
38880;BME280;25887;30.194;-97.880;2023-02-11T08:36:53;99645.47;;;7.06;39.22
38880;BME280;25887;30.194;-97.880;2023-02-11T08:39:32;99648.06;;;7.08;39.53
38880;BME280;25887;30.194;-97.880;2023-02-11T08:41:58;99637.06;;;7.09;39.23
38880;BME280;25887;30.194;-97.880;2023-02-11T08:44:23;99637.94;;;7.09;39.79
38880;BME280;25887;30.194;-97.880;2023-02-11T08:46:49;99633.69;;;7.10;39.47
38880;BME280;25887;30.194;-97.880;2023-02-11T08:49:15;99637.13;;;7.10;39.47
38880;BME280;25887;30.194;-97.880;2023-02-11T08:51:44;99637.13;;;7.10;39.80
38880;BME280;25887;30.194;-97.880;2023-02-11T08:54:11;99637.94;;;7.09;39.48
38880;BME280;25887;30.194;-97.880;2023-02-11T08:56:37;99637.94;;;7.09;39.41
38880;BME280;25887;30.194;-97.880;2023-02-11T08:59:03;99637.94;;;7.09;39.50
38880;BME280;25887;30.194;-97.880;2023-02-11T09:01:29;99637.06;;;7.09;39.57
38880;BME280;25887;30.194;-97.880;2023-02-11T09:03:56;99642.19;;;7.09;39.15
38880;BME280;25887;30.194;-97.880;2023-02-11T09:06:22;99636.19;;;7.08;39.70
38880;BME280;25887;30.194;-97.880;2023-02-11T09:08:49;99633.66;;;7.08;39.20
38880;BME280;25887;30.194;-97.880;2023-02-11T09:11:29;99635.31;;;7.08;39.60
38880;BME280;25887;30.194;-97.880;2023-02-11T09:13:54;99635.25;;;7.06;39.25
38880;BME280;25887;30.194;-97.880;2023-02-11T09:16:27;99634.34;;;7.04;39.58
38880;BME280;25887;30.194;-97.880;2023-02-11T09:18:55;99617.16;;;7.00;39.44
38880;BME280;25887;30.194;-97.880;2023-02-11T09:21:21;99617.97;;;6.99;39.72
38880;BME280;25887;30.194;-97.880;2023-02-11T09:23:47;99617.06;;;6.97;39.51
38880;BME280;25887;30.194;-97.880;2023-02-11T09:26:33;99611.88;;;6.94;39.74
38880;BME280;25887;30.194;-97.880;2023-02-11T09:29:00;99613.47;;;6.92;39.51
38880;BME280;25887;30.194;-97.880;2023-02-11T09:31:26;99608.28;;;6.89;39.52
38880;BME280;25887;30.194;-97.880;2023-02-11T09:33:54;99607.34;;;6.87;39.57
38880;BME280;25887;30.194;-97.880;2023-02-11T09:36:41;99611.56;;;6.85;39.48
38880;BME280;25887;30.194;-97.880;2023-02-11T09:39:08;99604.63;;;6.82;39.36
38880;BME280;25887;30.194;-97.880;2023-02-11T09:44:09;99613.94;;;6.80;39.40
38880;BME280;25887;30.194;-97.880;2023-02-11T09:46:56;99614.72;;;6.78;39.85
38880;BME280;25887;30.194;-97.880;2023-02-11T09:49:40;99607.84;;;6.77;39.70
38880;BME280;25887;30.194;-97.880;2023-02-11T09:54:54;99610.28;;;6.74;39.82
38880;BME280;25887;30.194;-97.880;2023-02-11T09:57:20;99611.94;;;6.72;39.59
38880;BME280;25887;30.194;-97.880;2023-02-11T09:59:46;99612.75;;;6.70;39.79
38880;BME280;25887;30.194;-97.880;2023-02-11T10:10:51;99602.31;;;6.64;39.66
38880;BME280;25887;30.194;-97.880;2023-02-11T10:15:46;99601.41;;;6.62;39.66
38880;BME280;25887;30.194;-97.880;2023-02-11T10:23:30;99591.97;;;6.61;39.62
38880;BME280;25887;30.194;-97.880;2023-02-11T10:25:58;99595.34;;;6.60;39.38
38880;BME280;25887;30.194;-97.880;2023-02-11T10:28:33;99585.94;;;6.59;39.50
38880;BME280;25887;30.194;-97.880;2023-02-11T10:31:14;99591.88;;;6.58;39.67
38880;BME280;25887;30.194;-97.880;2023-02-11T10:33:53;99583.31;;;6.56;39.43
38880;BME280;25887;30.194;-97.880;2023-02-11T10:36:21;99587.59;;;6.57;39.42
38880;BME280;25887;30.194;-97.880;2023-02-11T10:38:58;99592.66;;;6.56;39.56
38880;BME280;25887;30.194;-97.880;2023-02-11T10:41:31;99582.41;;;6.54;39.78
38880;BME280;25887;30.194;-97.880;2023-02-11T10:44:21;99588.28;;;6.53;39.75
38880;BME280;25887;30.194;-97.880;2023-02-11T10:46:49;99595.06;;;6.53;39.36
38880;BME280;25887;30.194;-97.880;2023-02-11T10:49:50;99586.56;;;6.52;39.70
38880;BME280;25887;30.194;-97.880;2023-02-11T10:54:38;99583.00;;;6.47;39.47
38880;BME280;25887;30.194;-97.880;2023-02-11T10:57:04;99593.13;;;6.46;39.64
38880;BME280;25887;30.194;-97.880;2023-02-11T10:59:35;99586.22;;;6.43;39.59
38880;BME280;25887;30.194;-97.880;2023-02-11T11:02:28;99581.94;;;6.42;39.60
38880;BME280;25887;30.194;-97.880;2023-02-11T11:05:00;99592.09;;;6.40;39.18
38880;BME280;25887;30.194;-97.880;2023-02-11T11:07:53;99581.03;;;6.40;39.59
38880;BME280;25887;30.194;-97.880;2023-02-11T11:10:26;99581.75;;;6.37;39.42
38880;BME280;25887;30.194;-97.880;2023-02-11T11:12:53;99580.09;;;6.38;39.30
38880;BME280;25887;30.194;-97.880;2023-02-11T11:15:24;99575.78;;;6.37;39.34
38880;BME280;25887;30.194;-97.880;2023-02-11T11:17:52;99566.44;;;6.37;39.34
38880;BME280;25887;30.194;-97.880;2023-02-11T11:20:33;99567.31;;;6.38;39.31
38880;BME280;25887;30.194;-97.880;2023-02-11T11:23:16;99575.78;;;6.37;39.54
38880;BME280;25887;30.194;-97.880;2023-02-11T11:25:57;99577.44;;;6.35;39.06
38880;BME280;25887;30.194;-97.880;2023-02-11T11:28:25;99583.34;;;6.34;39.28
38880;BME280;25887;30.194;-97.880;2023-02-11T11:30:53;99571.41;;;6.33;39.40
38880;BME280;25887;30.194;-97.880;2023-02-11T11:33:21;99579.06;;;6.33;39.21
38880;BME280;25887;30.194;-97.880;2023-02-11T11:36:18;99582.50;;;6.33;39.51
38880;BME280;25887;30.194;-97.880;2023-02-11T11:38:49;99585.91;;;6.34;39.73
38880;BME280;25887;30.194;-97.880;2023-02-11T11:41:24;99586.72;;;6.33;39.19
38880;BME280;25887;30.194;-97.880;2023-02-11T11:43:57;99587.66;;;6.35;39.32
38880;BME280;25887;30.194;-97.880;2023-02-11T11:46:42;99589.28;;;6.33;39.44
38880;BME280;25887;30.194;-97.880;2023-02-11T11:49:16;99596.94;;;6.33;39.05
38880;BME280;25887;30.194;-97.880;2023-02-11T11:51:50;99599.44;;;6.31;39.16
38880;BME280;25887;30.194;-97.880;2023-02-11T11:54:19;99599.34;;;6.30;39.33
38880;BME280;25887;30.194;-97.880;2023-02-11T11:56:50;99599.34;;;6.30;39.43
38880;BME280;25887;30.194;-97.880;2023-02-11T11:59:17;99609.47;;;6.27;39.52
38880;BME280;25887;30.194;-97.880;2023-02-11T12:06:40;99614.47;;;6.24;39.41
38880;BME280;25887;30.194;-97.880;2023-02-11T12:15:28;99623.63;;;6.19;39.03
38880;BME280;25887;30.194;-97.880;2023-02-11T12:22:40;99638.66;;;6.11;39.00
38880;BME280;25887;30.194;-97.880;2023-02-11T12:35:53;99642.41;;;5.98;39.52
38880;BME280;25887;30.194;-97.880;2023-02-11T12:41:20;99648.16;;;5.93;39.53
38880;BME280;25887;30.194;-97.880;2023-02-11T12:44:08;99653.94;;;5.90;39.59
38880;BME280;25887;30.194;-97.880;2023-02-11T12:46:52;99662.41;;;5.89;39.46
38880;BME280;25887;30.194;-97.880;2023-02-11T12:49:32;99658.06;;;5.86;39.51
38880;BME280;25887;30.194;-97.880;2023-02-11T12:52:05;99665.69;;;5.85;39.61
38880;BME280;25887;30.194;-97.880;2023-02-11T12:54:38;99665.59;;;5.83;39.26
38880;BME280;25887;30.194;-97.880;2023-02-11T12:57:10;99680.84;;;5.82;39.70
38880;BME280;25887;30.194;-97.880;2023-02-11T12:59:43;99679.91;;;5.80;39.08
38880;BME280;25887;30.194;-97.880;2023-02-11T13:17:59;99673.94;;;5.58;39.74
38880;BME280;25887;30.194;-97.880;2023-02-11T13:21:25;99678.94;;;5.55;40.10
38880;BME280;25887;30.194;-97.880;2023-02-11T13:24:40;99679.75;;;5.54;40.01
38880;BME280;25887;30.194;-97.880;2023-02-11T13:33:31;99677.88;;;5.50;39.78
38880;BME280;25887;30.194;-97.880;2023-02-11T13:36:52;99669.28;;;5.48;39.95
38880;BME280;25887;30.194;-97.880;2023-02-11T13:52:21;99680.47;;;5.52;39.64
38880;BME280;25887;30.194;-97.880;2023-02-11T14:04:23;99693.66;;;5.63;39.98
38880;BME280;25887;30.194;-97.880;2023-02-11T14:07:31;99692.91;;;5.65;39.81
38880;BME280;25887;30.194;-97.880;2023-02-11T14:19:52;99738.88;;;5.87;40.13
38880;BME280;25887;30.194;-97.880;2023-02-11T14:22:27;99743.44;;;5.95;39.82
38880;BME280;25887;30.194;-97.880;2023-02-11T14:25:36;99750.47;;;6.00;39.70
38880;BME280;25887;30.194;-97.880;2023-02-11T14:28:50;99750.88;;;6.32;40.12
38880;BME280;25887;30.194;-97.880;2023-02-11T14:41:25;99769.66;;;8.27;38.64
38880;BME280;25887;30.194;-97.880;2023-02-11T14:43:58;99764.09;;;8.13;39.17
38880;BME280;25887;30.194;-97.880;2023-02-11T14:46:25;99764.69;;;8.04;38.75
38880;BME280;25887;30.194;-97.880;2023-02-11T14:48:55;99757.34;;;8.15;38.87
38880;BME280;25887;30.194;-97.880;2023-02-11T14:51:30;99751.50;;;8.19;39.42
38880;BME280;25887;30.194;-97.880;2023-02-11T14:53:57;99755.59;;;8.14;38.84
38880;BME280;25887;30.194;-97.880;2023-02-11T14:56:27;99753.59;;;8.04;38.99
38880;BME280;25887;30.194;-97.880;2023-02-11T14:58:55;99767.09;;;8.00;39.54
38880;BME280;25887;30.194;-97.880;2023-02-11T15:01:40;99780.00;;;8.03;39.08
38880;BME280;25887;30.194;-97.880;2023-02-11T15:04:21;99769.13;;;8.10;39.54
38880;BME280;25887;30.194;-97.880;2023-02-11T15:06:47;99777.78;;;8.14;39.06
38880;BME280;25887;30.194;-97.880;2023-02-11T15:12:14;99768.81;;;8.26;38.96
38880;BME280;25887;30.194;-97.880;2023-02-11T15:15:01;99763.72;;;8.28;38.62
38880;BME280;25887;30.194;-97.880;2023-02-11T15:17:28;99759.56;;;8.31;38.68
38880;BME280;25887;30.194;-97.880;2023-02-11T15:19:56;99754.50;;;8.33;38.25
38880;BME280;25887;30.194;-97.880;2023-02-11T15:22:41;99754.22;;;8.51;38.23
38880;BME280;25887;30.194;-97.880;2023-02-11T15:25:13;99753.00;;;8.67;38.27
38880;BME280;25887;30.194;-97.880;2023-02-11T15:27:42;99756.38;;;8.65;37.97
38880;BME280;25887;30.194;-97.880;2023-02-11T15:32:51;99771.88;;;8.70;37.52
38880;BME280;25887;30.194;-97.880;2023-02-11T15:35:22;99777.19;;;8.76;37.82
38880;BME280;25887;30.194;-97.880;2023-02-11T15:37:54;99773.25;;;8.87;38.13
38880;BME280;25887;30.194;-97.880;2023-02-11T15:40:27;99775.13;;;8.94;37.63
38880;BME280;25887;30.194;-97.880;2023-02-11T15:42:57;99767.78;;;9.05;37.60
38880;BME280;25887;30.194;-97.880;2023-02-11T15:45:53;99758.81;;;9.21;37.69
38880;BME280;25887;30.194;-97.880;2023-02-11T15:48:48;99761.00;;;9.39;37.18
38880;BME280;25887;30.194;-97.880;2023-02-11T15:51:33;99772.44;;;9.50;37.84
38880;BME280;25887;30.194;-97.880;2023-02-11T15:54:16;99769.97;;;9.55;36.86
38880;BME280;25887;30.194;-97.880;2023-02-11T15:56:43;99774.50;;;9.65;36.89
38880;BME280;25887;30.194;-97.880;2023-02-11T15:59:14;99775.59;;;9.73;36.63
38880;BME280;25887;30.194;-97.880;2023-02-11T16:01:41;99767.59;;;9.95;36.78
38880;BME280;25887;30.194;-97.880;2023-02-11T16:04:26;99771.66;;;10.22;37.01
38880;BME280;25887;30.194;-97.880;2023-02-11T16:06:53;99773.38;;;10.57;36.63
38880;BME280;25887;30.194;-97.880;2023-02-11T16:09:23;99759.44;;;10.87;36.42
38880;BME280;25887;30.194;-97.880;2023-02-11T16:17:23;99768.38;;;11.04;36.15
38880;BME280;25887;30.194;-97.880;2023-02-11T16:19:57;99770.91;;;11.03;35.30
38880;BME280;25887;30.194;-97.880;2023-02-11T16:22:26;99771.78;;;11.03;35.54
38880;BME280;25887;30.194;-97.880;2023-02-11T16:24:55;99770.19;;;11.08;35.55
38880;BME280;25887;30.194;-97.880;2023-02-11T16:27:22;99775.38;;;11.11;35.10
38880;BME280;25887;30.194;-97.880;2023-02-11T16:29:51;99769.34;;;11.11;34.88
38880;BME280;25887;30.194;-97.880;2023-02-11T16:32:21;99768.56;;;11.13;34.80
38880;BME280;25887;30.194;-97.880;2023-02-11T16:34:48;99777.19;;;11.15;34.83
38880;BME280;25887;30.194;-97.880;2023-02-11T16:37:14;99785.88;;;11.21;34.82
38880;BME280;25887;30.194;-97.880;2023-02-11T16:39:40;99783.38;;;11.25;34.63
38880;BME280;25887;30.194;-97.880;2023-02-11T16:42:06;99786.03;;;11.30;34.69
38880;BME280;25887;30.194;-97.880;2023-02-11T16:44:32;99783.63;;;11.37;34.95
38880;BME280;25887;30.194;-97.880;2023-02-11T16:46:59;99782.94;;;11.48;34.89
38880;BME280;25887;30.194;-97.880;2023-02-11T16:49:30;99783.97;;;11.57;34.96
38880;BME280;25887;30.194;-97.880;2023-02-11T16:52:00;99769.63;;;11.68;35.02